createdAt,value
2022-11-13T00:01:13.494Z,96946.97
2022-11-13T00:03:59.723Z,96894.78
2022-11-13T00:06:48.375Z,96970.44
2022-11-13T00:09:34.739Z,96960.41
2022-11-13T00:12:20.948Z,96939.25
2022-11-13T00:15:07.865Z,96954.13
2022-11-13T00:17:54.372Z,96913.38
2022-11-13T00:20:40.467Z,96953.78
2022-11-13T00:23:27.928Z,96944.56
2022-11-13T00:26:15.662Z,96944.06
2022-11-13T00:29:03.854Z,96936.97
2022-11-13T00:31:51.212Z,96914.44
2022-11-13T00:34:52.546Z,96928.41
2022-11-13T00:37:39.077Z,96924.88
2022-11-13T00:40:26.547Z,96922.81
2022-11-13T00:43:12.772Z,96874.91
2022-11-13T00:45:58.889Z,96928.50
2022-11-13T00:48:45.127Z,96900.06
2022-11-13T00:51:32.264Z,96918.66
2022-11-13T00:54:19.708Z,96883.50
2022-11-13T00:57:07.484Z,96908.63
2022-11-13T00:59:53.358Z,96909.97
2022-11-13T01:02:39.708Z,96906.13
2022-11-13T01:05:26.365Z,96883.38
2022-11-13T01:08:13.911Z,96903.63
2022-11-13T01:11:00.436Z,96899.59
2022-11-13T01:13:50.177Z,96892.94
2022-11-13T01:16:36.583Z,96894.41
2022-11-13T01:19:22.661Z,96884.66
2022-11-13T01:22:08.748Z,96878.84
2022-11-13T01:24:54.901Z,96884.00
2022-11-13T01:27:41.280Z,96874.44
2022-11-13T01:30:28.907Z,96819.28
2022-11-13T01:33:15.100Z,96869.78
2022-11-13T01:36:02.193Z,96855.16
2022-11-13T01:38:49.123Z,96805.22
2022-11-13T01:41:35.782Z,96854.91
2022-11-13T01:44:21.945Z,96856.75
2022-11-13T01:47:10.792Z,96854.66
2022-11-13T01:49:59.577Z,96845.03
2022-11-13T01:52:45.968Z,96846.63
2022-11-13T01:55:32.378Z,96843.09
2022-11-13T01:58:18.554Z,96830.88
2022-11-13T02:01:04.765Z,96842.56
2022-11-13T02:03:52.217Z,96837.31
2022-11-13T02:06:43.367Z,96841.06
2022-11-13T02:09:32.766Z,96839.53
2022-11-13T02:12:24.327Z,96834.72
2022-11-13T02:15:11.645Z,96832.28
2022-11-13T02:18:00.090Z,96834.56
2022-11-13T02:20:54.613Z,96820.72
2022-11-13T02:23:46.945Z,96823.56
2022-11-13T02:26:35.041Z,96775.97
2022-11-13T02:29:21.631Z,96810.75
2022-11-13T02:32:07.858Z,96822.75
2022-11-13T02:34:54.043Z,96821.09
2022-11-13T02:37:40.323Z,96816.94
2022-11-13T02:40:26.944Z,96806.69
2022-11-13T02:43:14.858Z,96797.16
2022-11-13T02:46:01.236Z,96791.78
2022-11-13T02:48:48.172Z,96790.19
2022-11-13T02:51:34.765Z,96772.19
2022-11-13T02:54:21.205Z,96778.22
2022-11-13T02:57:07.355Z,96776.03
2022-11-13T02:59:54.827Z,96722.75
2022-11-13T03:02:41.260Z,96649.69
2022-11-13T03:05:27.359Z,96777.19
2022-11-13T03:08:13.685Z,96748.63
2022-11-13T03:10:59.996Z,96767.31
2022-11-13T03:13:46.137Z,96762.88
2022-11-13T03:16:33.753Z,96756.94
2022-11-13T03:19:19.856Z,96706.84
2022-11-13T03:22:05.986Z,96734.34
2022-11-13T03:24:52.272Z,96728.69
2022-11-13T03:27:38.340Z,96751.47
2022-11-13T03:30:24.645Z,96730.66
2022-11-13T03:33:12.328Z,96746.06
2022-11-13T03:35:58.496Z,96708.69
2022-11-13T03:38:45.039Z,96738.88
2022-11-13T03:41:31.477Z,96733.22
2022-11-13T03:44:17.551Z,96703.84
2022-11-13T03:47:03.742Z,96726.97
2022-11-13T03:49:51.352Z,96728.88
2022-11-13T03:52:37.299Z,96721.19
2022-11-13T03:55:23.376Z,96698.19
2022-11-13T03:58:09.718Z,96693.47
2022-11-13T04:00:56.423Z,96711.25
2022-11-13T04:03:42.690Z,96684.53
2022-11-13T04:06:30.388Z,96713.34
2022-11-13T04:09:16.656Z,96706.16
2022-11-13T04:12:02.848Z,96704.28
2022-11-13T04:14:48.983Z,96706.66
2022-11-13T04:17:35.241Z,96691.06
2022-11-13T04:20:21.376Z,96692.91
2022-11-13T04:23:12.441Z,96688.31
2022-11-13T04:25:58.796Z,96694.56
2022-11-13T04:28:45.016Z,96700.06
2022-11-13T04:31:33.443Z,96689.75
2022-11-13T04:34:19.808Z,96703.16
2022-11-13T04:37:05.843Z,96689.38
2022-11-13T04:39:53.422Z,96699.22
2022-11-13T04:42:50.767Z,96687.19
2022-11-13T04:45:37.498Z,96669.22
2022-11-13T04:48:23.695Z,96610.75
2022-11-13T04:51:09.768Z,96669.00
2022-11-13T04:53:56.020Z,96677.78
2022-11-13T04:56:43.482Z,96671.31
2022-11-13T04:59:29.632Z,96672.47
2022-11-13T05:02:15.722Z,96670.19
2022-11-13T05:05:04.893Z,96661.66
2022-11-13T05:07:51.539Z,96658.66
2022-11-13T05:10:38.030Z,96657.19
2022-11-13T05:13:26.436Z,96652.44
2022-11-13T05:16:15.081Z,96666.09
2022-11-13T05:19:01.727Z,96668.47
2022-11-13T05:21:48.358Z,96660.94
2022-11-13T05:24:34.562Z,96659.34
2022-11-13T05:27:20.646Z,96646.66
2022-11-13T05:30:10.064Z,96644.34
2022-11-13T05:32:56.394Z,96620.75
2022-11-13T05:35:42.534Z,96643.78
2022-11-13T05:38:31.943Z,96640.91
2022-11-13T05:41:21.015Z,96628.09
2022-11-13T05:44:07.461Z,96630.09
2022-11-13T05:46:54.899Z,96617.63
2022-11-13T05:49:41.262Z,96609.63
2022-11-13T05:52:27.365Z,96550.22
2022-11-13T05:55:13.465Z,96601.47
2022-11-13T05:58:00.013Z,96613.03
2022-11-13T06:00:46.573Z,96611.84
2022-11-13T06:03:34.057Z,96564.88
2022-11-13T06:06:22.460Z,96611.91
2022-11-13T06:09:08.639Z,96597.72
2022-11-13T06:11:54.892Z,96572.72
2022-11-13T06:14:41.038Z,96601.66
2022-11-13T06:17:27.178Z,96601.38
2022-11-13T06:20:15.044Z,96600.84
2022-11-13T06:23:01.520Z,96591.44
2022-11-13T06:25:47.949Z,96601.28
2022-11-13T06:28:35.574Z,96585.28
2022-11-13T06:31:23.837Z,96560.50
2022-11-13T06:34:10.173Z,96582.47
2022-11-13T06:36:57.883Z,96584.94
2022-11-13T06:39:43.935Z,96578.75
2022-11-13T06:42:30.417Z,96585.19
2022-11-13T06:45:16.571Z,96569.88
2022-11-13T06:48:02.716Z,96562.19
2022-11-13T06:50:49.128Z,96521.75
2022-11-13T06:53:36.915Z,96551.69
2022-11-13T06:56:23.369Z,96544.59
2022-11-13T06:59:10.178Z,96539.59
2022-11-13T07:01:56.569Z,96534.53
2022-11-13T07:04:42.679Z,96402.50
2022-11-13T07:07:29.006Z,96518.69
2022-11-13T07:10:16.762Z,96517.44
2022-11-13T07:13:03.039Z,96522.50
2022-11-13T07:15:50.136Z,96519.53
2022-11-13T07:18:37.401Z,96539.16
2022-11-13T07:21:24.108Z,96530.97
2022-11-13T07:24:14.117Z,96519.34
2022-11-13T07:27:04.689Z,96504.09
2022-11-13T07:29:50.805Z,96523.09
2022-11-13T07:32:37.105Z,96521.63
2022-11-13T07:35:23.680Z,96507.31
2022-11-13T07:38:10.334Z,96525.78
2022-11-13T07:40:59.448Z,96525.94
2022-11-13T07:43:47.224Z,96531.66
2022-11-13T07:46:33.435Z,96527.44
2022-11-13T07:49:19.560Z,96552.19
2022-11-13T07:52:06.104Z,96532.47
2022-11-13T07:54:52.504Z,96569.56
2022-11-13T07:57:38.504Z,96523.19
2022-11-13T08:00:26.227Z,96567.91
2022-11-13T08:03:14.700Z,96567.47
2022-11-13T08:06:02.569Z,96553.50
2022-11-13T08:08:49.587Z,96568.28
2022-11-13T08:11:36.528Z,96563.84
2022-11-13T08:14:23.180Z,96552.38
2022-11-13T08:17:10.673Z,96547.88
2022-11-13T08:19:56.999Z,96560.34
2022-11-13T08:22:43.173Z,96542.97
2022-11-13T08:25:29.876Z,96531.97
2022-11-13T08:28:16.255Z,96521.53
2022-11-13T08:31:03.546Z,96522.69
2022-11-13T08:33:50.987Z,96521.00
2022-11-13T08:36:36.982Z,96513.91
2022-11-13T08:39:23.144Z,96511.72
2022-11-13T08:42:09.721Z,96519.34
2022-11-13T08:44:55.856Z,96521.66
2022-11-13T08:47:42.457Z,96504.75
2022-11-13T08:50:31.165Z,96527.38
2022-11-13T08:53:17.385Z,96515.09
2022-11-13T08:56:04.973Z,96521.72
2022-11-13T08:58:51.467Z,96523.94
2022-11-13T09:01:37.651Z,96517.44
2022-11-13T09:04:24.127Z,96503.13
2022-11-13T09:07:11.677Z,96512.31
2022-11-13T09:09:58.201Z,96504.78
2022-11-13T09:12:44.991Z,96491.59
2022-11-13T09:15:32.531Z,96511.03
2022-11-13T09:18:19.031Z,96513.31
2022-11-13T09:21:05.435Z,96509.44
2022-11-13T09:23:53.079Z,96522.00
2022-11-13T09:26:39.190Z,96515.84
2022-11-13T09:29:28.399Z,96512.53
2022-11-13T09:32:16.075Z,96516.06
2022-11-13T09:35:02.297Z,96500.19
2022-11-13T09:37:55.821Z,96496.31
2022-11-13T09:40:49.651Z,96484.47
2022-11-13T09:43:40.270Z,96487.25
2022-11-13T09:46:36.930Z,96481.97
2022-11-13T09:49:28.246Z,96492.66
2022-11-13T09:52:18.204Z,96475.72
2022-11-13T09:55:05.362Z,96468.47
2022-11-13T09:58:01.484Z,96472.91
2022-11-13T10:00:48.020Z,96461.06
2022-11-13T10:06:59.406Z,96452.66
2022-11-13T10:09:59.325Z,96459.94
2022-11-13T10:12:48.029Z,96459.81
2022-11-13T10:15:37.769Z,96473.78
2022-11-13T10:18:32.166Z,96462.19
2022-11-13T10:21:34.362Z,96464.44
2022-11-13T10:24:27.020Z,96455.91
2022-11-13T10:27:15.733Z,96453.28
2022-11-13T10:30:02.640Z,96436.94
2022-11-13T10:32:51.153Z,96431.16
2022-11-13T10:35:46.132Z,96419.09
2022-11-13T10:38:40.047Z,96415.47
2022-11-13T10:41:26.263Z,96425.84
2022-11-13T10:44:21.686Z,96420.94
2022-11-13T10:47:22.685Z,96423.84
2022-11-13T10:50:23.630Z,96414.41
2022-11-13T10:53:17.177Z,96405.28
2022-11-13T10:56:03.862Z,96401.28
2022-11-13T10:59:12.334Z,96378.25
2022-11-13T11:02:09.168Z,96383.31
2022-11-13T11:05:07.542Z,96381.88
2022-11-13T11:07:57.412Z,96375.50
2022-11-13T11:11:03.637Z,96368.81
2022-11-13T11:13:49.982Z,96366.38
2022-11-13T11:16:37.410Z,96371.69
2022-11-13T11:19:27.596Z,96363.38
2022-11-13T11:22:17.865Z,96354.09
2022-11-13T11:25:11.563Z,96359.34
2022-11-13T11:28:03.695Z,96354.28
2022-11-13T11:30:56.484Z,96357.00
2022-11-13T11:33:51.952Z,96340.31
2022-11-13T11:36:45.792Z,96345.22
2022-11-13T11:39:36.888Z,96339.94
2022-11-13T11:42:31.291Z,96343.22
2022-11-13T11:45:25.036Z,96333.38
2022-11-13T11:48:15.260Z,96321.50
2022-11-13T11:51:08.467Z,96312.31
2022-11-13T11:54:03.711Z,96309.88
2022-11-13T11:56:53.541Z,96305.44
2022-11-13T12:00:01.782Z,96295.34
2022-11-13T12:03:11.180Z,96295.63
2022-11-13T12:06:20.299Z,96286.63
2022-11-13T12:09:16.559Z,96268.91
2022-11-13T12:12:12.534Z,96279.91
2022-11-13T12:15:06.763Z,96275.53
2022-11-13T12:18:06.101Z,96294.00
2022-11-13T12:21:04.379Z,96289.94
2022-11-13T12:24:14.660Z,96272.19
2022-11-13T12:27:10.014Z,96285.25
2022-11-13T12:30:09.686Z,96259.41
2022-11-13T12:33:07.823Z,96271.72
2022-11-13T12:35:54.974Z,96258.38
2022-11-13T12:38:48.900Z,96247.91
2022-11-13T12:41:43.743Z,96231.28
2022-11-13T12:44:31.037Z,96234.81
2022-11-13T12:47:17.889Z,96226.41
2022-11-13T12:50:07.010Z,96219.72
2022-11-13T12:53:01.282Z,96226.91
2022-11-13T12:55:59.872Z,96216.19
2022-11-13T12:59:28.435Z,96225.81
2022-11-13T13:02:31.316Z,96233.00
2022-11-13T13:05:25.019Z,96237.50
2022-11-13T13:08:35.695Z,96221.63
2022-11-13T13:11:30.952Z,96202.66
2022-11-13T13:14:49.333Z,96205.06
2022-11-13T13:17:35.488Z,96199.28
2022-11-13T13:20:34.044Z,96192.41
2022-11-13T13:23:32.331Z,96183.81
2022-11-13T13:26:21.510Z,96180.44
2022-11-13T13:29:18.952Z,96183.88
2022-11-13T13:32:20.739Z,96186.25
2022-11-13T13:35:15.724Z,96183.09
2022-11-13T13:38:09.072Z,96192.03
2022-11-13T13:41:17.107Z,96108.88
2022-11-13T13:44:21.882Z,96173.44
2022-11-13T13:47:18.702Z,96170.53
2022-11-13T13:50:06.929Z,96161.09
2022-11-13T13:52:55.894Z,96157.13
2022-11-13T13:55:48.577Z,96141.13
2022-11-13T13:58:37.330Z,96134.31
2022-11-13T14:01:29.265Z,96135.38
2022-11-13T14:04:20.528Z,96124.91
2022-11-13T14:07:22.128Z,96130.72
2022-11-13T14:10:15.378Z,96129.91
2022-11-13T14:13:01.505Z,96131.72
2022-11-13T14:15:47.694Z,96127.00
2022-11-13T14:18:35.576Z,96135.66
2022-11-13T14:21:24.976Z,96138.84
2022-11-13T14:24:17.748Z,96129.38
2022-11-13T14:27:07.911Z,96129.09
2022-11-13T14:29:56.597Z,96120.97
2022-11-13T14:32:46.914Z,96122.81
2022-11-13T14:35:34.056Z,96117.00
2022-11-13T14:38:24.059Z,96115.69
2022-11-13T14:41:22.437Z,96116.97
2022-11-13T14:44:11.509Z,96112.78
2022-11-13T14:47:03.424Z,96105.94
2022-11-13T14:49:49.774Z,96089.91
2022-11-13T14:52:36.001Z,96109.34
2022-11-13T14:55:26.818Z,96105.63
2022-11-13T14:58:14.881Z,96113.28
2022-11-13T15:01:13.190Z,96116.13
2022-11-13T15:03:59.334Z,96111.41
2022-11-13T15:06:46.131Z,96102.97
2022-11-13T15:09:32.383Z,96095.88
2022-11-13T15:12:19.730Z,96091.13
2022-11-13T15:15:06.634Z,96085.06
2022-11-13T15:17:53.311Z,96076.06
2022-11-13T15:20:41.965Z,96089.44
2022-11-13T15:23:29.253Z,96087.84
2022-11-13T15:26:15.992Z,96078.34
2022-11-13T15:29:03.538Z,96083.06
2022-11-13T15:31:49.791Z,96072.47
2022-11-13T15:34:36.088Z,96084.00
2022-11-13T15:37:22.134Z,96092.88
2022-11-13T15:40:09.083Z,96087.31
2022-11-13T15:42:57.383Z,96084.94
2022-11-13T15:45:45.154Z,96083.84
2022-11-13T15:48:32.427Z,96086.41
2022-11-13T15:51:21.880Z,96079.50
2022-11-13T15:54:17.377Z,96057.44
2022-11-13T15:57:03.784Z,96082.59
2022-11-13T15:59:50.229Z,96078.09
2022-11-13T16:02:38.980Z,96082.97
2022-11-13T16:05:26.333Z,96079.88
2022-11-13T16:08:14.400Z,96074.22
2022-11-13T16:11:00.744Z,96077.09
2022-11-13T16:13:47.908Z,96087.19
2022-11-13T16:16:36.752Z,96082.94
2022-11-13T16:19:26.061Z,96091.06
2022-11-13T16:22:19.966Z,96077.22
2022-11-13T16:25:07.311Z,96089.84
2022-11-13T16:27:54.023Z,96086.09
2022-11-13T16:30:40.261Z,96078.19
2022-11-13T16:33:26.600Z,96077.69
2022-11-13T16:36:16.078Z,96084.44
2022-11-13T16:39:02.512Z,96074.22
2022-11-13T16:41:48.633Z,96081.53
2022-11-13T16:44:34.806Z,96068.69
2022-11-13T16:47:23.980Z,96072.53
2022-11-13T16:50:19.195Z,96058.09
2022-11-13T16:53:06.947Z,96067.72
2022-11-13T16:55:53.275Z,96067.31
2022-11-13T16:58:39.641Z,96060.47
2022-11-13T17:01:26.621Z,96052.72
2022-11-13T17:04:14.719Z,96062.16
2022-11-13T17:07:01.042Z,96041.75
2022-11-13T17:09:55.253Z,96051.88
2022-11-13T17:12:51.881Z,96056.09
2022-11-13T17:15:37.965Z,96047.75
2022-11-13T17:18:24.121Z,96013.34
2022-11-13T17:21:10.582Z,96043.97
2022-11-13T17:23:57.443Z,96047.00
2022-11-13T17:26:45.572Z,96049.38
2022-11-13T17:29:31.644Z,96049.16
2022-11-13T17:32:17.917Z,96052.13
2022-11-13T17:35:05.839Z,96055.28
2022-11-13T17:37:52.155Z,96061.28
2022-11-13T17:40:38.327Z,96046.88
2022-11-13T17:43:26.170Z,96044.00
2022-11-13T17:46:14.495Z,96046.13
2022-11-13T17:49:01.086Z,96060.34
2022-11-13T17:51:50.858Z,96064.34
2022-11-13T17:54:37.034Z,96050.97
2022-11-13T17:57:26.871Z,96049.06
2022-11-13T18:00:15.415Z,96060.81
2022-11-13T18:03:01.683Z,96057.34
2022-11-13T18:05:48.131Z,96063.63
2022-11-13T18:08:34.727Z,96061.09
2022-11-13T18:11:22.548Z,96068.09
2022-11-13T18:14:09.739Z,96053.72
2022-11-13T18:16:57.390Z,96064.63
2022-11-13T18:19:43.520Z,96061.94
2022-11-13T18:22:29.919Z,96061.63
2022-11-13T18:25:16.439Z,96055.53
2022-11-13T18:28:02.765Z,96060.69
2022-11-13T18:30:55.064Z,96062.75
2022-11-13T18:33:44.787Z,96068.69
2022-11-13T18:36:34.429Z,96072.50
2022-11-13T18:39:20.571Z,96068.75
2022-11-13T18:42:06.779Z,96059.13
2022-11-13T18:44:53.152Z,96058.47
2022-11-13T18:47:39.376Z,96055.88
2022-11-13T18:50:27.688Z,96050.56
2022-11-13T18:53:14.041Z,96046.22
2022-11-13T18:56:01.404Z,96052.47
2022-11-13T18:58:49.722Z,96047.09
2022-11-13T19:01:38.161Z,96068.63
2022-11-13T19:04:24.786Z,96067.06
2022-11-13T19:07:12.696Z,96071.16
2022-11-13T19:09:58.954Z,96073.75
2022-11-13T19:12:45.281Z,96083.75
2022-11-13T19:15:31.426Z,96086.22
2022-11-13T19:18:18.236Z,96085.50
2022-11-13T19:21:06.880Z,96095.72
2022-11-13T19:23:54.843Z,96090.16
2022-11-13T19:26:41.817Z,96085.91
2022-11-13T19:29:28.150Z,96080.34
2022-11-13T19:32:14.283Z,96066.63
2022-11-13T19:35:00.433Z,96065.53
2022-11-13T19:37:47.115Z,96058.88
2022-11-13T19:40:34.576Z,96068.88
2022-11-13T19:43:20.751Z,96069.50
2022-11-13T19:46:07.946Z,96071.00
2022-11-13T19:48:54.311Z,96072.34
2022-11-13T19:51:40.500Z,96053.34
2022-11-13T19:54:26.579Z,96066.78
2022-11-13T19:57:13.875Z,96074.88
2022-11-13T19:59:59.976Z,96071.63
2022-11-13T20:02:46.138Z,96051.44
2022-11-13T20:05:32.316Z,96068.84
2022-11-13T20:08:18.935Z,96079.56
2022-11-13T20:11:06.204Z,96059.13
2022-11-13T20:13:53.783Z,96075.66
2022-11-13T20:16:40.049Z,96061.81
2022-11-13T20:19:29.681Z,96057.78
2022-11-13T20:22:16.220Z,96055.56
2022-11-13T20:25:02.428Z,96049.31
2022-11-13T20:27:49.952Z,96045.34
2022-11-13T20:30:37.890Z,96052.78
2022-11-13T20:33:24.113Z,96048.19
2022-11-13T20:36:10.382Z,96056.91
2022-11-13T20:38:58.138Z,96046.59
2022-11-13T20:41:44.202Z,96046.44
2022-11-13T20:44:30.924Z,96049.75
2022-11-13T20:47:18.713Z,96051.66
2022-11-13T20:50:05.428Z,96056.28
2022-11-13T20:52:51.817Z,96056.44
2022-11-13T20:55:38.741Z,96054.06
2022-11-13T20:58:24.816Z,96041.69
2022-11-13T21:01:13.039Z,96057.84
2022-11-13T21:04:00.672Z,96053.88
2022-11-13T21:06:47.361Z,96051.28
2022-11-13T21:09:33.732Z,96048.00
2022-11-13T21:12:19.858Z,96046.97
2022-11-13T21:15:07.069Z,96053.56
2022-11-13T21:17:53.800Z,96055.63
2022-11-13T21:20:41.366Z,96057.25
2022-11-13T21:23:30.576Z,96040.09
2022-11-13T21:26:17.553Z,96055.31
2022-11-13T21:29:03.731Z,96047.84
2022-11-13T21:31:50.177Z,96049.25
2022-11-13T21:34:36.183Z,96049.22
2022-11-13T21:37:23.756Z,96048.00
2022-11-13T21:40:12.008Z,96035.03
2022-11-13T21:42:58.492Z,96031.66
2022-11-13T21:45:44.523Z,96016.72
2022-11-13T21:48:33.482Z,96033.41
2022-11-13T21:51:19.847Z,96016.94
2022-11-13T21:54:07.622Z,96028.75
2022-11-13T21:56:53.757Z,96036.78
2022-11-13T21:59:40.027Z,96029.22
2022-11-13T22:02:26.276Z,96017.97
2022-11-13T22:05:12.908Z,96015.91
2022-11-13T22:07:59.133Z,96018.13
2022-11-13T22:10:46.791Z,96030.22
2022-11-13T22:13:33.210Z,96030.63
2022-11-13T22:16:20.031Z,96020.28
2022-11-13T22:19:08.310Z,96020.84
2022-11-13T22:21:54.603Z,96024.94
2022-11-13T22:24:40.715Z,96041.00
2022-11-13T22:27:28.095Z,96035.94
2022-11-13T22:30:14.353Z,96007.44
2022-11-13T22:33:01.079Z,96028.81
2022-11-13T22:35:47.468Z,96046.22
2022-11-13T22:38:34.928Z,96045.38
2022-11-13T22:41:23.956Z,96056.22
2022-11-13T22:44:14.105Z,96037.03
2022-11-13T22:47:00.114Z,96038.59
2022-11-13T22:49:46.293Z,96038.00
2022-11-13T22:52:32.415Z,96031.09
2022-11-13T22:55:18.471Z,96028.25
2022-11-13T22:58:07.075Z,96037.19
2022-11-13T23:00:54.822Z,96047.34
2022-11-13T23:03:42.676Z,96016.72
2022-11-13T23:06:30.684Z,95989.78
2022-11-13T23:09:16.842Z,96023.91
2022-11-13T23:12:03.067Z,96027.53
2022-11-13T23:14:49.064Z,96025.66
2022-11-13T23:17:36.650Z,96019.88
2022-11-13T23:20:22.919Z,96021.13
2022-11-13T23:23:09.101Z,95995.34
2022-11-13T23:25:55.379Z,96002.69
2022-11-13T23:28:42.177Z,95992.25
2022-11-13T23:31:28.200Z,95983.53
2022-11-13T23:34:26.903Z,95976.34
2022-11-13T23:37:22.239Z,95957.75
2022-11-13T23:40:09.572Z,95981.22
2022-11-13T23:42:55.981Z,95995.28
2022-11-13T23:45:43.363Z,95993.34
2022-11-13T23:48:30.259Z,95996.25
2022-11-13T23:51:18.410Z,95996.34
2022-11-13T23:54:04.483Z,95959.41
2022-11-13T23:56:50.818Z,95966.91
2022-11-13T23:59:36.855Z,95998.50
